createdAt,value
2018-03-26T00:00:39.382Z,9.62
2018-03-26T00:01:39.370Z,9.66
2018-03-26T00:02:39.335Z,9.62
2018-03-26T00:03:39.306Z,9.73
2018-03-26T00:04:39.286Z,9.64
2018-03-26T00:05:39.256Z,9.59
2018-03-26T00:06:39.228Z,9.62
2018-03-26T00:07:39.204Z,9.51
2018-03-26T00:08:39.179Z,9.55
2018-03-26T00:09:39.159Z,9.47
2018-03-26T00:10:39.132Z,9.51
2018-03-26T00:11:39.097Z,9.50
2018-03-26T00:12:39.070Z,9.43
2018-03-26T00:13:39.050Z,9.44
2018-03-26T00:14:39.024Z,9.41
2018-03-26T00:15:38.988Z,9.44
2018-03-26T00:16:38.971Z,9.39
2018-03-26T00:17:38.943Z,9.39
2018-03-26T00:18:38.923Z,9.44
2018-03-26T00:19:38.900Z,9.46
2018-03-26T00:20:38.867Z,9.46
2018-03-26T00:21:38.843Z,9.55
2018-03-26T00:22:38.810Z,9.55
2018-03-26T00:23:38.794Z,9.64
2018-03-26T00:24:38.766Z,9.62
2018-03-26T00:25:38.729Z,9.62
2018-03-26T00:26:38.707Z,9.73
2018-03-26T00:27:38.672Z,9.68
2018-03-26T00:28:38.652Z,9.76
2018-03-26T00:29:38.631Z,9.76
2018-03-26T00:30:38.601Z,9.79
2018-03-26T00:31:38.572Z,9.73
2018-03-26T00:32:38.544Z,9.72
2018-03-26T00:33:38.525Z,9.82
2018-03-26T00:34:38.501Z,9.83
2018-03-26T00:35:38.474Z,9.87
2018-03-26T00:36:38.444Z,9.72
2018-03-26T00:37:38.416Z,9.68
2018-03-26T00:38:38.392Z,9.73
2018-03-26T00:39:38.367Z,9.76
2018-03-26T00:40:38.340Z,9.72
2018-03-26T00:41:38.310Z,9.62
2018-03-26T00:42:38.283Z,9.56
2018-03-26T00:43:38.259Z,9.46
2018-03-26T00:44:38.229Z,9.47
2018-03-26T00:45:38.213Z,9.47
2018-03-26T00:46:38.177Z,9.39
2018-03-26T00:47:38.160Z,9.40
2018-03-26T00:48:38.128Z,9.43
2018-03-26T00:49:38.100Z,9.39
2018-03-26T00:50:38.069Z,9.41
2018-03-26T00:51:38.054Z,9.36
2018-03-26T00:52:38.023Z,9.36
2018-03-26T00:53:38.004Z,9.28
2018-03-26T00:54:37.966Z,9.21
2018-03-26T00:55:37.949Z,9.11
2018-03-26T00:56:37.915Z,9.16
2018-03-26T00:57:37.893Z,9.18
2018-03-26T00:58:37.857Z,9.11
2018-03-26T00:59:37.845Z,9.06
2018-03-26T01:00:37.811Z,8.99
2018-03-26T01:01:37.783Z,9.00
2018-03-26T01:02:37.763Z,8.94
2018-03-26T01:03:37.732Z,8.89
2018-03-26T01:04:37.708Z,8.99
2018-03-26T01:05:37.683Z,8.82
2018-03-26T01:06:37.651Z,8.91
2018-03-26T01:07:37.633Z,8.85
2018-03-26T01:08:37.602Z,8.95
2018-03-26T01:09:37.581Z,8.85
2018-03-26T01:10:37.539Z,8.87
2018-03-26T01:11:37.524Z,8.84
2018-03-26T01:12:37.495Z,8.85
2018-03-26T01:13:37.468Z,8.82
2018-03-26T01:14:37.453Z,8.82
2018-03-26T01:15:37.416Z,8.81
2018-03-26T01:16:37.390Z,8.85
2018-03-26T01:17:37.371Z,8.85
2018-03-26T01:18:37.339Z,8.84
2018-03-26T01:19:37.314Z,8.82
2018-03-26T01:20:37.285Z,8.84
2018-03-26T01:21:37.258Z,8.85
2018-03-26T01:22:37.236Z,8.85
2018-03-26T01:23:37.210Z,8.84
2018-03-26T01:24:37.176Z,8.84
2018-03-26T01:25:37.156Z,8.89
2018-03-26T01:26:37.132Z,8.78
2018-03-26T01:27:37.094Z,8.71
2018-03-26T01:28:37.073Z,8.74
2018-03-26T01:29:37.053Z,8.73
2018-03-26T01:30:37.025Z,8.63
2018-03-26T01:31:36.989Z,8.55
2018-03-26T01:32:36.969Z,8.58
2018-03-26T01:33:36.939Z,8.51
2018-03-26T01:34:36.916Z,8.53
2018-03-26T01:35:36.887Z,8.44
2018-03-26T01:36:36.866Z,8.31
2018-03-26T01:37:36.829Z,8.42
2018-03-26T01:38:36.809Z,8.34
2018-03-26T01:39:36.779Z,8.34
2018-03-26T01:40:36.752Z,8.41
2018-03-26T01:41:36.730Z,8.31
2018-03-26T01:42:36.702Z,8.31
2018-03-26T01:43:36.677Z,8.30
2018-03-26T01:44:36.652Z,8.33
2018-03-26T01:45:36.616Z,8.28
2018-03-26T01:46:36.600Z,8.27
2018-03-26T01:47:36.568Z,8.26
2018-03-26T01:48:36.547Z,8.24
2018-03-26T01:49:36.519Z,8.19
2018-03-26T01:50:36.487Z,8.26
2018-03-26T01:51:36.459Z,8.16
2018-03-26T01:52:36.438Z,8.23
2018-03-26T01:53:36.421Z,8.19
2018-03-26T01:54:36.384Z,8.15
2018-03-26T01:55:36.363Z,8.15
2018-03-26T01:56:36.333Z,8.10
2018-03-26T01:57:36.302Z,8.10
2018-03-26T01:58:36.274Z,8.01
2018-03-26T01:59:36.252Z,8.01
2018-03-26T02:00:36.227Z,8.00
2018-03-26T02:01:36.196Z,7.90
2018-03-26T02:02:36.171Z,7.82
2018-03-26T02:03:36.146Z,7.85
2018-03-26T02:04:36.124Z,7.94
2018-03-26T02:05:36.087Z,7.98
2018-03-26T02:06:36.088Z,7.94
2018-03-26T02:07:36.039Z,7.90
2018-03-26T02:08:36.005Z,7.93
2018-03-26T02:09:35.991Z,7.85
2018-03-26T02:10:35.956Z,7.94
2018-03-26T02:11:35.930Z,7.90
2018-03-26T02:12:35.902Z,8.03
2018-03-26T02:13:35.885Z,8.05
2018-03-26T02:14:35.845Z,7.98
2018-03-26T02:15:35.826Z,8.01
2018-03-26T02:16:35.803Z,7.90
2018-03-26T02:17:35.768Z,7.97
2018-03-26T02:18:35.743Z,7.94
2018-03-26T02:19:35.719Z,7.82
2018-03-26T02:20:35.695Z,7.82
2018-03-26T02:21:35.666Z,7.94
2018-03-26T02:22:35.639Z,7.79
2018-03-26T02:23:35.616Z,7.87
2018-03-26T02:24:35.590Z,7.93
2018-03-26T02:25:35.555Z,7.80
2018-03-26T02:26:35.533Z,7.85
2018-03-26T02:27:35.506Z,7.95
2018-03-26T02:28:35.474Z,7.94
2018-03-26T02:29:35.456Z,7.97
2018-03-26T02:30:35.434Z,8.00
2018-03-26T02:31:35.393Z,7.95
2018-03-26T02:32:35.368Z,7.98
2018-03-26T02:33:35.349Z,8.00
2018-03-26T02:34:35.310Z,8.05
2018-03-26T02:35:35.298Z,8.15
2018-03-26T02:36:35.259Z,8.09
2018-03-26T02:37:35.235Z,8.09
2018-03-26T02:38:35.212Z,8.15
2018-03-26T02:39:35.187Z,8.05
2018-03-26T02:40:35.166Z,7.90
2018-03-26T02:41:35.124Z,7.98
2018-03-26T02:42:35.108Z,8.05
2018-03-26T02:43:35.076Z,7.93
2018-03-26T02:44:35.047Z,7.95
2018-03-26T02:45:35.029Z,7.98
2018-03-26T02:46:35.000Z,8.05
2018-03-26T02:47:34.967Z,7.90
2018-03-26T02:48:34.938Z,7.87
2018-03-26T02:49:34.921Z,7.85
2018-03-26T02:50:34.898Z,7.80
2018-03-26T02:51:34.869Z,7.94
2018-03-26T02:52:34.836Z,8.01
2018-03-26T02:53:34.817Z,8.10
2018-03-26T02:54:34.784Z,8.08
2018-03-26T02:55:34.759Z,8.09
2018-03-26T02:56:34.732Z,8.13
2018-03-26T02:57:34.707Z,8.10
2018-03-26T02:58:34.683Z,7.88
2018-03-26T02:59:34.652Z,7.90
2018-03-26T03:00:34.639Z,7.91
2018-03-26T03:01:34.599Z,7.95
2018-03-26T03:02:34.574Z,7.95
2018-03-26T03:03:34.546Z,8.00
2018-03-26T03:04:34.526Z,8.01
2018-03-26T03:05:34.492Z,8.00
2018-03-26T03:06:34.470Z,8.03
2018-03-26T03:07:34.442Z,7.87
2018-03-26T03:08:34.414Z,7.91
2018-03-26T03:09:34.382Z,7.94
2018-03-26T03:10:34.393Z,7.88
2018-03-26T03:11:34.326Z,8.01
2018-03-26T03:12:34.300Z,8.01
2018-03-26T03:13:34.283Z,8.03
2018-03-26T03:14:34.258Z,8.01
2018-03-26T03:15:34.226Z,8.03
2018-03-26T03:16:34.198Z,8.03
2018-03-26T03:17:34.174Z,8.01
2018-03-26T03:18:34.137Z,7.95
2018-03-26T03:19:34.126Z,7.91
2018-03-26T03:20:34.100Z,8.03
2018-03-26T03:21:34.060Z,8.06
2018-03-26T03:22:34.042Z,8.12
2018-03-26T03:23:34.017Z,8.00
2018-03-26T03:24:33.983Z,7.97
2018-03-26T03:25:33.961Z,7.98
2018-03-26T03:26:33.937Z,7.93
2018-03-26T03:27:33.909Z,8.03
2018-03-26T03:28:33.874Z,8.00
2018-03-26T03:29:33.857Z,7.94
2018-03-26T03:30:33.825Z,7.90
2018-03-26T03:31:33.798Z,8.00
2018-03-26T03:32:33.770Z,7.98
2018-03-26T03:33:33.741Z,7.88
2018-03-26T03:34:33.715Z,7.91
2018-03-26T03:35:33.691Z,7.91
2018-03-26T03:36:33.673Z,7.93
2018-03-26T03:37:33.639Z,7.90
2018-03-26T03:38:33.606Z,7.90
2018-03-26T03:39:33.592Z,8.03
2018-03-26T03:40:33.558Z,8.03
2018-03-26T03:41:33.532Z,8.00
2018-03-26T03:42:33.506Z,8.03
2018-03-26T03:43:33.473Z,8.00
2018-03-26T03:44:33.454Z,8.03
2018-03-26T03:45:33.431Z,8.01
2018-03-26T03:46:33.398Z,8.05
2018-03-26T03:47:33.366Z,8.06
2018-03-26T03:48:33.340Z,8.13
2018-03-26T03:49:33.317Z,8.10
2018-03-26T03:50:33.289Z,8.15
2018-03-26T03:51:33.275Z,8.08
2018-03-26T03:52:33.247Z,8.05
2018-03-26T03:53:33.207Z,8.05
2018-03-26T03:54:33.189Z,8.03
2018-03-26T03:55:33.159Z,8.05
2018-03-26T03:56:33.140Z,8.10
2018-03-26T03:57:33.104Z,8.18
2018-03-26T03:58:33.079Z,8.12
2018-03-26T03:59:33.059Z,8.09
2018-03-26T04:00:33.022Z,8.05
2018-03-26T04:01:32.999Z,8.06
2018-03-26T04:02:33.025Z,8.06
2018-03-26T04:03:32.951Z,8.06
2018-03-26T04:04:32.917Z,8.08
2018-03-26T04:05:32.895Z,8.03
2018-03-26T04:06:32.864Z,8.05
2018-03-26T04:07:32.841Z,8.08
2018-03-26T04:08:32.818Z,8.01
2018-03-26T04:09:32.781Z,8.01
2018-03-26T04:10:32.757Z,8.03
2018-03-26T04:11:32.741Z,8.01
2018-03-26T04:12:32.708Z,8.01
2018-03-26T04:13:32.678Z,8.12
2018-03-26T04:14:32.657Z,8.10
2018-03-26T04:15:32.631Z,8.10
2018-03-26T04:16:32.607Z,8.03
2018-03-26T04:17:32.574Z,8.01
2018-03-26T04:18:32.553Z,8.03
2018-03-26T04:19:32.522Z,7.87
2018-03-26T04:20:32.500Z,7.80
2018-03-26T04:21:32.465Z,7.79
2018-03-26T04:22:32.438Z,7.79
2018-03-26T04:23:32.421Z,7.80
2018-03-26T04:24:32.386Z,7.90
2018-03-26T04:25:32.362Z,7.85
2018-03-26T04:26:32.333Z,7.82
2018-03-26T04:27:32.301Z,7.83
2018-03-26T04:28:32.279Z,7.80
2018-03-26T04:29:32.252Z,7.79
2018-03-26T04:30:32.224Z,7.77
2018-03-26T04:31:32.205Z,7.83
2018-03-26T04:32:32.173Z,7.72
2018-03-26T04:33:32.192Z,7.66
2018-03-26T04:34:32.114Z,7.56
2018-03-26T04:35:32.093Z,7.53
2018-03-26T04:36:32.069Z,7.54
2018-03-26T04:37:32.039Z,7.48
2018-03-26T04:38:32.016Z,7.56
2018-03-26T04:39:31.985Z,7.54
2018-03-26T04:40:31.959Z,7.60
2018-03-26T04:41:31.939Z,7.61
2018-03-26T04:42:31.905Z,7.60
2018-03-26T04:43:31.885Z,7.70
2018-03-26T04:44:31.856Z,7.73
2018-03-26T04:45:31.820Z,7.61
2018-03-26T04:46:31.803Z,7.60
2018-03-26T04:47:31.764Z,7.57
2018-03-26T04:48:31.746Z,7.53
2018-03-26T04:49:31.721Z,7.54
2018-03-26T04:50:31.694Z,7.51
2018-03-26T04:51:31.663Z,7.60
2018-03-26T04:52:31.640Z,7.66
2018-03-26T04:53:31.614Z,7.67
2018-03-26T04:54:31.594Z,7.72
2018-03-26T04:55:31.564Z,7.67
2018-03-26T04:56:31.534Z,7.67
2018-03-26T04:57:31.510Z,7.66
2018-03-26T04:58:31.479Z,7.63
2018-03-26T04:59:31.453Z,7.60
2018-03-26T05:00:31.468Z,7.56
2018-03-26T05:01:31.400Z,7.53
2018-03-26T05:02:31.377Z,7.54
2018-03-26T05:03:31.341Z,7.57
2018-03-26T05:04:31.322Z,7.54
2018-03-26T05:05:31.285Z,7.57
2018-03-26T05:06:31.269Z,7.53
2018-03-26T05:07:31.246Z,7.43
2018-03-26T05:08:31.216Z,7.43
2018-03-26T05:09:31.188Z,7.51
2018-03-26T05:10:31.155Z,7.42
2018-03-26T05:11:31.139Z,7.47
2018-03-26T05:12:31.105Z,7.35
2018-03-26T05:13:31.073Z,7.35
2018-03-26T05:14:31.058Z,7.38
2018-03-26T05:15:31.024Z,7.33
2018-03-26T05:16:30.995Z,7.23
2018-03-26T05:17:30.977Z,7.23
2018-03-26T05:18:30.945Z,7.31
2018-03-26T05:19:30.912Z,7.14
2018-03-26T05:20:30.885Z,7.15
2018-03-26T05:21:30.866Z,7.17
2018-03-26T05:22:30.840Z,7.11
2018-03-26T05:23:30.818Z,7.21
2018-03-26T05:24:30.781Z,7.15
2018-03-26T05:25:30.758Z,7.10
2018-03-26T05:26:30.724Z,7.17
2018-03-26T05:27:30.739Z,7.11
2018-03-26T05:28:30.677Z,7.18
2018-03-26T05:29:30.654Z,7.23
2018-03-26T05:30:30.621Z,7.18
2018-03-26T05:31:30.602Z,7.17
2018-03-26T05:32:30.572Z,7.17
2018-03-26T05:33:30.540Z,7.20
2018-03-26T05:34:30.518Z,7.23
2018-03-26T05:35:30.487Z,7.18
2018-03-26T05:36:30.465Z,7.20
2018-03-26T05:37:30.429Z,7.18
2018-03-26T05:38:30.424Z,7.13
2018-03-26T05:39:30.378Z,7.11
2018-03-26T05:40:30.382Z,7.06
2018-03-26T05:41:30.333Z,7.06
2018-03-26T05:42:30.302Z,7.11
2018-03-26T05:43:30.275Z,7.10
2018-03-26T05:44:30.264Z,7.03
2018-03-26T05:45:30.222Z,7.03
2018-03-26T05:46:30.202Z,7.06
2018-03-26T05:47:30.172Z,6.95
2018-03-26T05:48:30.139Z,6.96
2018-03-26T05:49:30.121Z,6.93
2018-03-26T05:50:30.079Z,6.87
2018-03-26T05:51:30.065Z,6.87
2018-03-26T05:52:30.048Z,6.88
2018-03-26T05:53:30.000Z,6.92
2018-03-26T05:54:29.972Z,6.79
2018-03-26T05:55:29.954Z,6.84
2018-03-26T05:56:29.931Z,6.77
2018-03-26T05:57:29.897Z,6.85
2018-03-26T05:58:29.871Z,6.81
2018-03-26T05:59:29.841Z,6.85
2018-03-26T06:00:29.817Z,6.84
2018-03-26T06:01:29.790Z,6.79
2018-03-26T06:02:29.761Z,6.96
2018-03-26T06:03:29.737Z,6.89
2018-03-26T06:04:29.713Z,6.89
2018-03-26T06:05:29.688Z,6.93
2018-03-26T06:06:29.654Z,7.02
2018-03-26T06:07:29.624Z,6.97
2018-03-26T06:08:29.600Z,6.96
2018-03-26T06:09:29.572Z,6.92
2018-03-26T06:10:29.549Z,7.07
2018-03-26T06:11:29.520Z,6.92
2018-03-26T06:12:29.491Z,6.89
2018-03-26T06:13:29.468Z,6.93
2018-03-26T06:14:29.443Z,6.89
2018-03-26T06:15:29.444Z,6.92
2018-03-26T06:16:29.385Z,6.93
2018-03-26T06:17:29.351Z,6.95
2018-03-26T06:18:29.340Z,6.95
2018-03-26T06:19:29.298Z,6.95
2018-03-26T06:20:29.278Z,6.99
2018-03-26T06:21:29.253Z,6.97
2018-03-26T06:22:29.234Z,7.00
2018-03-26T06:23:29.197Z,7.03
2018-03-26T06:24:29.167Z,6.93
2018-03-26T06:25:29.146Z,6.95
2018-03-26T06:26:29.127Z,6.97
2018-03-26T06:27:29.088Z,7.11
2018-03-26T06:28:29.065Z,7.07
2018-03-26T06:29:29.034Z,7.13
2018-03-26T06:30:29.044Z,7.17
2018-03-26T06:31:28.982Z,7.14
2018-03-26T06:32:28.950Z,7.06
2018-03-26T06:33:28.934Z,7.15
2018-03-26T06:34:28.895Z,7.11
2018-03-26T06:35:28.881Z,7.15
2018-03-26T06:36:28.851Z,7.28
2018-03-26T06:37:28.818Z,7.21
2018-03-26T06:38:28.795Z,7.23
2018-03-26T06:39:28.774Z,7.24
2018-03-26T06:40:28.741Z,7.21
2018-03-26T06:41:28.723Z,7.24
2018-03-26T06:42:28.682Z,7.25
2018-03-26T06:43:28.661Z,7.25
2018-03-26T06:44:28.633Z,7.31
2018-03-26T06:45:28.613Z,7.20
2018-03-26T06:46:28.579Z,7.20
2018-03-26T06:47:28.561Z,7.21
2018-03-26T06:48:28.532Z,7.14
2018-03-26T06:49:28.502Z,7.18
2018-03-26T06:50:28.476Z,7.33
2018-03-26T06:51:28.448Z,7.23
2018-03-26T06:52:28.418Z,7.25
2018-03-26T06:53:28.403Z,7.32
2018-03-26T06:54:28.363Z,7.25
2018-03-26T06:55:28.350Z,7.25
2018-03-26T06:56:28.312Z,7.23
2018-03-26T06:57:28.285Z,7.28
2018-03-26T06:58:28.259Z,7.11
2018-03-26T06:59:28.233Z,7.23
2018-03-26T07:00:28.204Z,7.13
2018-03-26T07:01:28.188Z,7.14
2018-03-26T07:02:28.150Z,7.11
2018-03-26T07:03:28.126Z,7.11
2018-03-26T07:04:28.095Z,7.21
2018-03-26T07:05:28.074Z,7.18
2018-03-26T07:06:28.053Z,7.14
2018-03-26T07:07:28.024Z,7.07
2018-03-26T07:08:27.993Z,7.11
2018-03-26T07:09:27.964Z,7.18
2018-03-26T07:10:27.938Z,7.10
2018-03-26T07:11:27.912Z,7.17
2018-03-26T07:12:27.935Z,7.11
2018-03-26T07:13:27.856Z,7.05
2018-03-26T07:14:27.832Z,7.05
2018-03-26T07:15:27.795Z,7.11
2018-03-26T07:16:27.799Z,7.11
2018-03-26T07:17:27.755Z,7.06
2018-03-26T07:18:27.715Z,7.10
2018-03-26T07:19:27.699Z,7.07
2018-03-26T07:20:27.671Z,7.13
2018-03-26T07:21:27.658Z,7.14
2018-03-26T07:22:27.617Z,7.11
2018-03-26T07:23:27.588Z,7.07
2018-03-26T07:24:27.554Z,7.20
2018-03-26T07:25:27.537Z,7.20
2018-03-26T07:26:27.514Z,7.24
2018-03-26T07:27:27.481Z,7.35
2018-03-26T07:28:28.080Z,7.32
2018-03-26T07:29:27.429Z,7.43
2018-03-26T07:30:27.399Z,7.35
2018-03-26T07:31:27.378Z,7.47
2018-03-26T07:32:27.356Z,7.45
2018-03-26T07:33:27.317Z,7.51
2018-03-26T07:34:27.297Z,7.51
2018-03-26T07:35:27.262Z,7.57
2018-03-26T07:36:27.238Z,7.61
2018-03-26T07:37:27.210Z,7.67
2018-03-26T07:38:27.193Z,7.75
2018-03-26T07:39:27.162Z,7.77
2018-03-26T07:40:27.131Z,7.83
2018-03-26T07:41:27.114Z,7.85
2018-03-26T07:42:27.089Z,7.75
2018-03-26T07:43:27.049Z,7.77
2018-03-26T07:44:27.032Z,7.75
2018-03-26T07:45:27.013Z,7.70
2018-03-26T07:46:26.969Z,7.69
2018-03-26T07:47:26.950Z,7.80
2018-03-26T07:48:26.922Z,7.88
2018-03-26T07:49:26.894Z,7.79
2018-03-26T07:50:26.878Z,7.83
2018-03-26T07:51:26.844Z,7.85
2018-03-26T07:52:26.807Z,7.85
2018-03-26T07:53:26.786Z,7.93
2018-03-26T07:54:26.766Z,8.01
2018-03-26T07:55:26.732Z,7.93
2018-03-26T07:56:26.709Z,8.03
2018-03-26T07:57:26.688Z,8.08
2018-03-26T07:58:26.653Z,8.15
2018-03-26T07:59:26.633Z,8.09
2018-03-26T08:00:26.605Z,8.10
2018-03-26T08:01:26.572Z,8.24
2018-03-26T08:02:26.538Z,8.18
2018-03-26T08:03:26.521Z,8.26
2018-03-26T08:04:26.499Z,8.28
2018-03-26T08:05:26.466Z,8.28
2018-03-26T08:06:26.439Z,8.30
2018-03-26T08:07:26.415Z,8.49
2018-03-26T08:08:26.386Z,8.46
2018-03-26T08:09:26.369Z,8.46
2018-03-26T08:10:26.332Z,8.34
2018-03-26T08:11:26.376Z,8.42
2018-03-26T08:12:26.285Z,8.42
2018-03-26T08:13:26.256Z,8.51
2018-03-26T08:14:26.230Z,8.56
2018-03-26T08:15:26.215Z,8.56
2018-03-26T08:16:26.182Z,8.58
2018-03-26T08:17:26.148Z,8.58
2018-03-26T08:18:26.116Z,8.63
2018-03-26T08:19:26.102Z,8.63
2018-03-26T08:20:26.112Z,8.61
2018-03-26T08:21:26.082Z,8.56
2018-03-26T08:22:26.020Z,8.64
2018-03-26T08:23:25.987Z,8.51
2018-03-26T08:24:25.969Z,8.56
2018-03-26T08:25:25.940Z,8.55
2018-03-26T08:26:25.906Z,8.60
2018-03-26T08:27:25.880Z,8.70
2018-03-26T08:28:25.853Z,8.70
2018-03-26T08:29:25.831Z,8.55
2018-03-26T08:30:25.807Z,8.63
2018-03-26T08:31:25.784Z,8.55
2018-03-26T08:32:25.749Z,8.45
2018-03-26T08:33:25.719Z,8.49
2018-03-26T08:34:25.691Z,8.41
2018-03-26T08:35:25.678Z,8.33
2018-03-26T08:36:25.711Z,8.26
2018-03-26T08:37:25.624Z,8.15
2018-03-26T08:38:25.595Z,8.08
2018-03-26T08:39:25.566Z,8.08
2018-03-26T08:40:25.547Z,8.08
2018-03-26T08:41:25.509Z,8.18
2018-03-26T08:42:25.570Z,8.12
2018-03-26T08:43:25.460Z,8.12
2018-03-26T08:44:25.605Z,8.08
2018-03-26T08:45:25.399Z,8.19
2018-03-26T08:46:25.383Z,8.27
2018-03-26T08:47:25.385Z,8.10
2018-03-26T08:48:25.539Z,8.26
2018-03-26T08:49:25.332Z,8.24
2018-03-26T08:50:25.304Z,8.28
2018-03-26T08:51:25.238Z,8.30
2018-03-26T08:52:25.218Z,8.28
2018-03-26T08:53:25.202Z,8.44
2018-03-26T08:54:25.272Z,8.45
2018-03-26T08:55:25.140Z,8.42
2018-03-26T08:56:25.109Z,8.44
2018-03-26T08:57:25.084Z,8.37
2018-03-26T08:58:25.075Z,8.38
2018-03-26T08:59:25.042Z,8.38
2018-03-26T09:00:25.004Z,8.38
2018-03-26T09:01:24.982Z,8.52
2018-03-26T09:02:24.947Z,8.37
2018-03-26T09:03:24.932Z,8.48
2018-03-26T09:04:24.905Z,8.51
2018-03-26T09:05:24.874Z,8.46
2018-03-26T09:06:24.848Z,8.51
2018-03-26T09:07:24.816Z,8.45
2018-03-26T09:08:24.797Z,8.48
2018-03-26T09:09:24.758Z,8.60
2018-03-26T09:10:24.741Z,8.61
2018-03-26T09:11:24.711Z,8.69
2018-03-26T09:12:24.682Z,8.64
2018-03-26T09:13:24.663Z,8.61
2018-03-26T09:14:24.635Z,8.56
2018-03-26T09:15:24.604Z,8.51
2018-03-26T09:16:24.576Z,8.52
2018-03-26T09:17:24.555Z,8.51
2018-03-26T09:18:24.521Z,8.61
2018-03-26T09:19:24.506Z,8.61
2018-03-26T09:20:24.466Z,8.66
2018-03-26T09:21:24.446Z,8.58
2018-03-26T09:22:24.417Z,8.66
2018-03-26T09:23:24.398Z,8.70
2018-03-26T09:24:24.374Z,8.69
2018-03-26T09:25:24.343Z,8.67
2018-03-26T09:26:24.314Z,8.63
2018-03-26T09:27:24.290Z,8.67
2018-03-26T09:28:24.255Z,8.66
2018-03-26T09:29:24.239Z,8.66
2018-03-26T09:30:24.205Z,8.66
2018-03-26T09:31:24.187Z,8.58
2018-03-26T09:32:24.155Z,8.56
2018-03-26T09:33:24.125Z,8.64
2018-03-26T09:34:24.097Z,8.69
2018-03-26T09:35:24.088Z,8.73
2018-03-26T09:36:24.052Z,8.73
2018-03-26T09:37:24.017Z,8.87
2018-03-26T09:38:23.988Z,8.81
2018-03-26T09:39:24.046Z,8.88
2018-03-26T09:40:24.032Z,8.97
2018-03-26T09:41:23.938Z,8.97
2018-03-26T09:42:23.893Z,8.92
2018-03-26T09:43:23.885Z,8.97
2018-03-26T09:44:23.851Z,9.00
2018-03-26T09:45:23.800Z,9.04
2018-03-26T09:46:23.785Z,9.08
2018-03-26T09:47:23.756Z,9.02
2018-03-26T09:48:23.719Z,9.11
2018-03-26T09:49:23.702Z,9.14
2018-03-26T09:50:23.682Z,9.23
2018-03-26T09:51:23.646Z,9.34
2018-03-26T09:52:23.620Z,9.44
2018-03-26T09:53:23.604Z,9.55
2018-03-26T09:54:23.567Z,9.48
2018-03-26T09:55:23.540Z,9.46
2018-03-26T09:56:23.516Z,9.41
2018-03-26T09:57:23.499Z,9.32
2018-03-26T09:58:23.472Z,9.44
2018-03-26T09:59:23.435Z,9.46
2018-03-26T10:00:23.413Z,9.43
2018-03-26T10:01:23.384Z,9.47
2018-03-26T10:02:23.360Z,9.39
2018-03-26T10:03:23.331Z,9.41
2018-03-26T10:04:23.298Z,9.44
2018-03-26T10:05:23.307Z,9.43
2018-03-26T10:06:23.250Z,9.54
2018-03-26T10:07:23.220Z,9.56
2018-03-26T10:08:23.196Z,9.61
2018-03-26T10:09:23.174Z,9.61
2018-03-26T10:10:23.149Z,9.61
2018-03-26T10:11:23.118Z,9.61
2018-03-26T10:12:23.087Z,9.50
2018-03-26T10:13:23.065Z,9.62
2018-03-26T10:14:23.042Z,9.65
2018-03-26T10:15:23.013Z,9.74
2018-03-26T10:16:22.986Z,9.95
2018-03-26T10:17:22.958Z,10.01
2018-03-26T10:18:22.934Z,10.12
2018-03-26T10:19:22.907Z,10.19
2018-03-26T10:20:22.880Z,10.13
2018-03-26T10:21:22.858Z,10.12
2018-03-26T10:22:22.824Z,10.23
2018-03-26T10:23:22.808Z,10.28
2018-03-26T10:24:22.783Z,10.15
2018-03-26T10:25:22.749Z,10.10
2018-03-26T10:26:22.723Z,10.13
2018-03-26T10:27:22.694Z,10.28
2018-03-26T10:28:22.680Z,10.34
2018-03-26T10:29:22.642Z,10.46
2018-03-26T10:30:22.642Z,10.31
2018-03-26T10:31:22.679Z,10.26
2018-03-26T10:32:22.602Z,10.31
2018-03-26T10:33:22.548Z,10.25
2018-03-26T10:34:22.511Z,10.26
2018-03-26T10:35:22.497Z,10.26
2018-03-26T10:36:22.460Z,10.26
2018-03-26T10:37:22.438Z,10.30
2018-03-26T10:38:22.407Z,10.30
2018-03-26T10:39:22.384Z,10.35
2018-03-26T10:40:22.385Z,10.41
2018-03-26T10:41:22.371Z,10.51
2018-03-26T10:42:22.412Z,10.63
2018-03-26T10:43:22.286Z,10.63
2018-03-26T10:44:22.257Z,10.64
2018-03-26T10:45:22.296Z,10.67
2018-03-26T10:46:22.205Z,10.64
2018-03-26T10:47:22.182Z,10.71
2018-03-26T10:48:22.152Z,10.71
2018-03-26T10:49:22.117Z,10.78
2018-03-26T10:50:22.103Z,10.67
2018-03-26T10:51:22.067Z,10.60
2018-03-26T10:52:22.043Z,10.68
2018-03-26T10:53:22.028Z,10.68
2018-03-26T10:54:22.002Z,10.61
2018-03-26T10:55:21.971Z,10.46
2018-03-26T10:56:21.946Z,10.64
2018-03-26T10:57:21.916Z,10.63
2018-03-26T10:58:21.906Z,10.42
2018-03-26T10:59:21.877Z,10.44
2018-03-26T11:00:21.856Z,10.54
2018-03-26T11:01:21.814Z,10.54
2018-03-26T11:02:21.790Z,10.57
2018-03-26T11:03:21.764Z,10.59
2018-03-26T11:04:21.742Z,10.63
2018-03-26T11:05:21.719Z,10.67
2018-03-26T11:06:21.690Z,10.78
2018-03-26T11:07:21.666Z,10.76
2018-03-26T11:08:21.637Z,10.74
2018-03-26T11:09:21.618Z,10.90
2018-03-26T11:10:21.590Z,11.14
2018-03-26T11:11:21.550Z,11.12
2018-03-26T11:12:21.528Z,11.14
2018-03-26T11:13:21.512Z,11.05
2018-03-26T11:14:21.480Z,11.00
2018-03-26T11:15:21.465Z,10.90
2018-03-26T11:16:21.426Z,10.87
2018-03-26T11:17:21.411Z,10.94
2018-03-26T11:18:21.374Z,10.94
2018-03-26T11:19:21.363Z,11.05
2018-03-26T11:20:21.331Z,11.02
2018-03-26T11:21:21.297Z,10.86
2018-03-26T11:22:21.283Z,10.87
2018-03-26T11:23:21.247Z,10.90
2018-03-26T11:24:21.221Z,10.79
2018-03-26T11:25:21.205Z,10.74
2018-03-26T11:26:21.177Z,10.67
2018-03-26T11:27:21.151Z,10.68
2018-03-26T11:28:21.117Z,10.71
2018-03-26T11:29:21.101Z,10.74
2018-03-26T11:30:21.078Z,10.75
2018-03-26T11:31:21.048Z,11.00
2018-03-26T11:32:21.027Z,10.99
2018-03-26T11:33:20.996Z,11.15
2018-03-26T11:34:20.978Z,11.14
2018-03-26T11:35:20.939Z,11.19
2018-03-26T11:36:20.984Z,11.17
2018-03-26T11:37:20.900Z,11.07
2018-03-26T11:38:20.872Z,10.97
2018-03-26T11:39:20.838Z,11.04
2018-03-26T11:40:20.821Z,11.10
2018-03-26T11:41:20.786Z,10.94
2018-03-26T11:42:20.769Z,10.93
2018-03-26T11:43:20.746Z,10.71
2018-03-26T11:44:20.726Z,10.79
2018-03-26T11:45:20.714Z,10.63
2018-03-26T11:46:20.672Z,10.71
2018-03-26T11:47:20.794Z,10.59
2018-03-26T11:48:20.613Z,10.49
2018-03-26T11:49:20.587Z,10.56
2018-03-26T11:50:20.568Z,10.53
2018-03-26T11:51:20.537Z,10.53
2018-03-26T11:52:20.513Z,10.49
2018-03-26T11:53:20.493Z,10.48
2018-03-26T11:54:20.456Z,10.49
2018-03-26T11:55:20.429Z,10.59
2018-03-26T11:56:20.408Z,10.59
2018-03-26T11:57:20.379Z,10.61
2018-03-26T11:58:20.350Z,10.46
2018-03-26T11:59:20.336Z,10.54
2018-03-26T12:00:20.313Z,10.41
2018-03-26T12:01:20.280Z,10.41
2018-03-26T12:02:20.251Z,10.53
2018-03-26T12:03:20.237Z,10.49
2018-03-26T12:04:20.206Z,10.48
2018-03-26T12:05:20.181Z,10.54
2018-03-26T12:06:20.161Z,10.53
2018-03-26T12:07:20.128Z,10.60
2018-03-26T12:08:20.099Z,10.69
2018-03-26T12:09:20.084Z,10.74
2018-03-26T12:10:20.404Z,10.79
2018-03-26T12:11:20.031Z,10.71
2018-03-26T12:12:20.009Z,10.74
2018-03-26T12:13:19.969Z,10.72
2018-03-26T12:14:19.949Z,10.69
2018-03-26T12:15:19.927Z,10.59
2018-03-26T12:16:19.917Z,10.63
2018-03-26T12:17:19.880Z,10.67
2018-03-26T12:18:19.900Z,10.68
2018-03-26T12:19:19.841Z,10.71
2018-03-26T12:20:19.803Z,10.69
2018-03-26T12:21:19.774Z,10.63
2018-03-26T12:22:19.742Z,10.68
2018-03-26T12:23:19.714Z,10.61
2018-03-26T12:24:19.686Z,10.67
2018-03-26T12:25:19.661Z,10.60
2018-03-26T12:26:19.645Z,10.64
2018-03-26T12:27:19.607Z,10.59
2018-03-26T12:28:19.622Z,10.63
2018-03-26T12:29:19.567Z,10.67
2018-03-26T12:30:19.549Z,10.74
2018-03-26T12:31:19.529Z,10.94
2018-03-26T12:32:19.491Z,11.07
2018-03-26T12:33:19.462Z,11.17
2018-03-26T12:34:19.435Z,11.19
2018-03-26T12:35:19.414Z,11.26
2018-03-26T12:36:19.422Z,11.29
2018-03-26T12:37:19.353Z,11.43
2018-03-26T12:38:19.343Z,11.45
2018-03-26T12:39:19.318Z,11.30
2018-03-26T12:40:19.287Z,11.25
2018-03-26T12:41:19.266Z,11.00
2018-03-26T12:42:19.343Z,11.05
2018-03-26T12:43:19.259Z,11.00
2018-03-26T12:44:19.186Z,10.92
2018-03-26T12:45:19.151Z,10.94
2018-03-26T12:46:19.133Z,11.00
2018-03-26T12:47:19.103Z,11.10
2018-03-26T12:48:19.084Z,11.05
2018-03-26T12:49:19.052Z,11.23
2018-03-26T12:50:19.029Z,11.10
2018-03-26T12:51:19.002Z,11.11
2018-03-26T12:52:18.989Z,11.29
2018-03-26T12:53:18.951Z,11.23
2018-03-26T12:54:18.916Z,11.25
2018-03-26T12:55:18.906Z,11.25
2018-03-26T12:56:18.876Z,11.47
2018-03-26T12:57:18.852Z,11.50
2018-03-26T12:58:18.830Z,11.48
2018-03-26T12:59:18.810Z,11.40
2018-03-26T13:00:18.768Z,11.25
2018-03-26T13:01:18.755Z,11.23
2018-03-26T13:02:18.722Z,11.22
2018-03-26T13:03:18.711Z,11.27
2018-03-26T13:04:18.669Z,11.26
2018-03-26T13:05:18.654Z,11.26
2018-03-26T13:06:18.628Z,11.25
2018-03-26T13:07:18.609Z,11.37
2018-03-26T13:08:18.572Z,11.41
2018-03-26T13:09:18.543Z,11.54
2018-03-26T13:10:18.520Z,11.32
2018-03-26T13:11:18.498Z,11.32
2018-03-26T13:12:18.466Z,11.18